Time;durP1;ratioP1;P1;durP2;ratioP2;P2;SDS_P1;SDS_P2;PMS_P1;PMS_P2;Temp;Humidity;BMP_temperature;BMP_pressure;BME280_temperature;BME280_humidity;BME280_pressure;Samples;Min_cycle;Max_cycle;Signal;HPM_P1;HPM_P2
2021/04/22 00:00:33;;;;;;;16.42;15.93;;;;;;;;;;5028629;28;20096;-45
2021/04/22 00:02:59;;;;;;;16.10;15.65;;;;;;;;;;5028356;28;20132;-43
2021/04/22 00:05:28;;;;;;;9.30;9.05;;;;;;;;;;5017029;28;20053;-43
2021/04/22 00:07:55;;;;;;;10.20;9.73;;;;;;;;;;5026980;28;20045;-44
2021/04/22 00:10:41;;;;;;;8.52;8.32;;;;;;;;;;5027089;28;20046;-47
2021/04/22 00:13:08;;;;;;;8.15;7.85;;;;;;;;;;5026933;28;20026;-42
2021/04/22 00:15:34;;;;;;;11.70;11.40;;;;;;;;;;5022034;28;20041;-46
2021/04/22 00:18:01;;;;;;;9.35;8.98;;;;;;;;;;5029725;28;20038;-42
2021/04/22 00:20:27;;;;;;;7.93;7.72;;;;;;;;;;5023619;28;20702;-43
2021/04/22 00:22:54;;;;;;;14.60;14.27;;;;;;;;;;5016784;28;20041;-45
2021/04/22 00:25:20;;;;;;;15.82;15.50;;;;;;;;;;5026825;28;20033;-43
2021/04/22 00:27:46;;;;;;;12.65;12.35;;;;;;;;;;5027460;28;20490;-42
2021/04/22 00:30:14;;;;;;;15.15;14.70;;;;;;;;;;5026491;28;20050;-46
2021/04/22 00:32:41;;;;;;;13.52;13.23;;;;;;;;;;5026052;28;20037;-43
2021/04/22 00:35:08;;;;;;;12.02;11.55;;;;;;;;;;5027453;28;20056;-43
2021/04/22 00:37:35;;;;;;;11.70;11.18;;;;;;;;;;5029279;28;20437;-44
2021/04/22 00:40:04;;;;;;;13.15;12.73;;;;;;;;;;5027711;28;20033;-42
2021/04/22 00:42:30;;;;;;;14.45;14.05;;;;;;;;;;5025508;28;20128;-43
2021/04/22 00:44:57;;;;;;;14.70;14.10;;;;;;;;;;5024222;28;20080;-48
2021/04/22 00:47:23;;;;;;;12.02;11.68;;;;;;;;;;5029770;28;20037;-44
2021/04/22 00:49:50;;;;;;;10.18;9.98;;;;;;;;;;5028006;28;20049;-45
2021/04/22 00:52:17;;;;;;;7.55;7.35;;;;;;;;;;5018821;28;20033;-43
2021/04/22 00:54:43;;;;;;;6.63;6.43;;;;;;;;;;5030003;28;20052;-43
2021/04/22 00:57:09;;;;;;;7.75;7.63;;;;;;;;;;5024813;28;20069;-44
2021/04/22 00:59:35;;;;;;;7.53;7.20;;;;;;;;;;5029401;28;20409;-43
2021/04/22 01:02:12;;;;;;;9.18;8.93;;;;;;;;;;5029358;28;20049;-45
2021/04/22 01:04:38;;;;;;;9.63;9.43;;;;;;;;;;5030794;28;20107;-44
2021/04/22 01:07:04;;;;;;;10.40;10.07;;;;;;;;;;5031542;28;20692;-43
2021/04/22 01:09:31;;;;;;;9.88;9.68;;;;;;;;;;5023232;28;20063;-43
2021/04/22 01:11:58;;;;;;;11.00;10.73;;;;;;;;;;5032305;28;20060;-42
2021/04/22 01:14:25;;;;;;;8.88;8.68;;;;;;;;;;5028692;28;20040;-46
2021/04/22 01:16:51;;;;;;;9.02;8.57;;;;;;;;;;5032292;28;20489;-42
2021/04/22 01:19:17;;;;;;;7.78;7.47;;;;;;;;;;5030910;28;20050;-45
2021/04/22 01:21:44;;;;;;;8.63;8.23;;;;;;;;;;5029518;28;20040;-43
2021/04/22 01:24:10;;;;;;;7.57;7.38;;;;;;;;;;5028112;28;20092;-44
2021/04/22 01:26:37;;;;;;;9.73;9.43;;;;;;;;;;5030935;28;20069;-47
2021/04/22 01:29:04;;;;;;;9.65;9.25;;;;;;;;;;5032764;28;20041;-43
2021/04/22 01:31:30;;;;;;;13.48;13.02;;;;;;;;;;5029706;28;20041;-45
2021/04/22 01:34:04;;;;;;;12.57;12.15;;;;;;;;;;5031164;28;20045;-42
2021/04/22 01:36:34;;;;;;;13.10;12.52;;;;;;;;;;5025645;28;20038;-45
2021/04/22 01:39:03;;;;;;;12.00;11.55;;;;;;;;;;5030947;28;20624;-43
2021/04/22 01:41:30;;;;;;;12.30;12.10;;;;;;;;;;5029719;28;20087;-43
2021/04/22 01:43:56;;;;;;;16.77;16.08;;;;;;;;;;5030597;28;20049;-46
2021/04/22 01:46:23;;;;;;;15.88;15.48;;;;;;;;;;5029201;28;20777;-43
2021/04/22 01:48:49;;;;;;;14.38;13.20;;;;;;;;;;5028618;28;20440;-44
2021/04/22 01:51:16;;;;;;;13.27;12.98;;;;;;;;;;5023163;28;20034;-47
2021/04/22 01:53:42;;;;;;;13.75;13.32;;;;;;;;;;5015496;28;20064;-44
2021/04/22 01:56:08;;;;;;;12.45;12.10;;;;;;;;;;5028184;28;20508;-46
2021/04/22 01:58:34;;;;;;;14.63;14.13;;;;;;;;;;5029752;28;20041;-48
2021/04/22 02:01:01;;;;;;;14.95;14.52;;;;;;;;;;5031491;28;20069;-44
2021/04/22 02:03:31;;;;;;;11.32;11.02;;;;;;;;;;5020897;28;20038;-43
2021/04/22 02:05:58;;;;;;;15.50;15.20;;;;;;;;;;5031748;28;20052;-44
2021/04/22 02:08:25;;;;;;;15.93;15.63;;;;;;;;;;5028991;28;20036;-46
2021/04/22 02:10:51;;;;;;;13.30;12.77;;;;;;;;;;5029591;28;20049;-47
2021/04/22 02:13:19;;;;;;;17.80;17.17;;;;;;;;;;5029112;28;20041;-47
2021/04/22 02:15:46;;;;;;;16.90;16.50;;;;;;;;;;5028377;28;20040;-46
2021/04/22 02:18:12;;;;;;;15.55;15.07;;;;;;;;;;5018361;28;20486;-47
2021/04/22 02:20:39;;;;;;;19.10;18.45;;;;;;;;;;5022417;28;20041;-47
2021/04/22 02:23:07;;;;;;;17.88;17.17;;;;;;;;;;5031879;28;20037;-45
2021/04/22 02:25:34;;;;;;;16.70;16.30;;;;;;;;;;5024999;28;20038;-47
2021/04/22 02:28:01;;;;;;;18.25;17.85;;;;;;;;;;5024930;28;20052;-48
2021/04/22 02:30:28;;;;;;;19.40;18.35;;;;;;;;;;5030043;28;20052;-48
2021/04/22 02:32:55;;;;;;;17.08;16.67;;;;;;;;;;5029780;28;20033;-47
2021/04/22 02:35:26;;;;;;;19.23;18.63;;;;;;;;;;5031287;28;20452;-47
2021/04/22 02:37:52;;;;;;;19.13;18.50;;;;;;;;;;5024389;28;20100;-45
2021/04/22 02:40:21;;;;;;;19.15;18.70;;;;;;;;;;5016472;28;20037;-49
2021/04/22 02:42:47;;;;;;;18.67;18.17;;;;;;;;;;5030210;28;20517;-49
2021/04/22 02:45:15;;;;;;;18.70;18.20;;;;;;;;;;5027690;28;20084;-48
2021/04/22 02:47:43;;;;;;;19.55;18.95;;;;;;;;;;5026287;28;20051;-46
2021/04/22 02:50:11;;;;;;;18.67;18.05;;;;;;;;;;5028494;28;20045;-46
2021/04/22 02:52:37;;;;;;;19.23;18.63;;;;;;;;;;5027438;28;20083;-46
2021/04/22 02:55:04;;;;;;;19.38;18.83;;;;;;;;;;5029359;28;20077;-45
2021/04/22 02:57:30;;;;;;;18.27;17.88;;;;;;;;;;5029420;28;20038;-45
2021/04/22 02:59:57;;;;;;;18.52;18.00;;;;;;;;;;5028144;28;20482;-46
2021/04/22 03:02:23;;;;;;;16.63;16.33;;;;;;;;;;5027499;28;20055;-44
2021/04/22 03:04:49;;;;;;;15.90;15.40;;;;;;;;;;5030634;28;20124;-45
2021/04/22 03:07:15;;;;;;;18.15;17.55;;;;;;;;;;5029618;28;20065;-45
2021/04/22 03:09:42;;;;;;;16.83;16.23;;;;;;;;;;5030006;28;20048;-50
2021/04/22 03:12:08;;;;;;;12.80;12.43;;;;;;;;;;5023522;28;20033;-47
2021/04/22 03:14:35;;;;;;;14.70;14.35;;;;;;;;;;5026781;28;20037;-50
2021/04/22 03:17:01;;;;;;;14.68;14.30;;;;;;;;;;5020547;28;20037;-51
2021/04/22 03:19:28;;;;;;;12.82;12.52;;;;;;;;;;5025295;28;20120;-46
2021/04/22 03:21:54;;;;;;;17.55;17.10;;;;;;;;;;5027816;28;20056;-46
2021/04/22 03:24:20;;;;;;;18.88;18.30;;;;;;;;;;5030418;28;20065;-45
2021/04/22 03:26:46;;;;;;;19.27;18.75;;;;;;;;;;5018777;28;20053;-45
2021/04/22 03:29:13;;;;;;;18.27;17.77;;;;;;;;;;5030607;28;20061;-46
2021/04/22 03:31:39;;;;;;;17.13;16.73;;;;;;;;;;5029025;28;20343;-45
2021/04/22 03:34:05;;;;;;;16.90;16.60;;;;;;;;;;5010720;28;20068;-46
2021/04/22 03:36:32;;;;;;;20.00;19.50;;;;;;;;;;5023259;28;20050;-48
2021/04/22 03:38:58;;;;;;;19.02;18.42;;;;;;;;;;5023702;28;20029;-46
2021/04/22 03:41:24;;;;;;;18.30;17.70;;;;;;;;;;5020889;28;20042;-47
2021/04/22 03:43:50;;;;;;;18.83;18.25;;;;;;;;;;5023740;28;20820;-45
2021/04/22 03:46:16;;;;;;;20.75;20.15;;;;;;;;;;5021485;28;20458;-47
2021/04/22 03:48:43;;;;;;;22.20;21.17;;;;;;;;;;5027927;28;20099;-47
2021/04/22 03:51:09;;;;;;;17.77;17.33;;;;;;;;;;5028549;28;20048;-45
2021/04/22 03:53:36;;;;;;;20.02;19.52;;;;;;;;;;5029656;28;20148;-45
2021/04/22 03:56:03;;;;;;;19.80;19.15;;;;;;;;;;5028791;28;20042;-45
2021/04/22 03:58:29;;;;;;;20.70;20.10;;;;;;;;;;5030005;28;20037;-45
2021/04/22 04:00:55;;;;;;;20.95;20.25;;;;;;;;;;5027526;28;20087;-45
2021/04/22 04:03:22;;;;;;;20.48;19.73;;;;;;;;;;5029602;28;20034;-45
2021/04/22 04:05:48;;;;;;;20.90;20.17;;;;;;;;;;5028883;28;20068;-45
2021/04/22 04:08:14;;;;;;;19.42;18.92;;;;;;;;;;5027948;28;20041;-48
2021/04/22 04:10:40;;;;;;;19.45;18.75;;;;;;;;;;5020738;28;20049;-47
2021/04/22 04:13:07;;;;;;;20.52;19.92;;;;;;;;;;5026058;28;20036;-45
2021/04/22 04:15:33;;;;;;;20.95;20.35;;;;;;;;;;5026019;28;20360;-45
2021/04/22 04:17:59;;;;;;;20.85;20.33;;;;;;;;;;5029217;28;20593;-45
2021/04/22 04:20:31;;;;;;;22.50;21.60;;;;;;;;;;5025643;28;20040;-48
2021/04/22 04:22:58;;;;;;;21.95;21.35;;;;;;;;;;5027904;28;20049;-46
2021/04/22 04:25:24;;;;;;;20.10;19.70;;;;;;;;;;5028389;28;20041;-45
2021/04/22 04:27:51;;;;;;;21.63;20.95;;;;;;;;;;5032421;28;20048;-44
2021/04/22 04:30:18;;;;;;;20.27;19.67;;;;;;;;;;5031696;28;20096;-47
2021/04/22 04:32:45;;;;;;;22.80;21.92;;;;;;;;;;5031541;28;20360;-48
2021/04/22 04:35:12;;;;;;;41.22;37.97;;;;;;;;;;5025152;28;20069;-44
2021/04/22 04:37:38;;;;;;;41.25;37.75;;;;;;;;;;5033206;28;20422;-45
2021/04/22 04:40:06;;;;;;;28.23;26.35;;;;;;;;;;5031369;28;20041;-45
2021/04/22 04:42:32;;;;;;;21.00;20.05;;;;;;;;;;5031844;28;20107;-47
2021/04/22 04:44:58;;;;;;;20.30;19.70;;;;;;;;;;5031877;28;20042;-50
2021/04/22 04:47:24;;;;;;;17.15;16.75;;;;;;;;;;5031025;28;20042;-46
2021/04/22 04:49:51;;;;;;;20.30;19.70;;;;;;;;;;5025759;28;20038;-48
2021/04/22 04:52:17;;;;;;;21.48;20.75;;;;;;;;;;5032827;28;20041;-42
2021/04/22 04:54:44;;;;;;;20.67;20.08;;;;;;;;;;5029594;28;20048;-42
2021/04/22 04:57:10;;;;;;;22.30;21.50;;;;;;;;;;5030648;28;20038;-42
2021/04/22 04:59:36;;;;;;;20.52;19.60;;;;;;;;;;5030192;28;20061;-43
2021/04/22 05:02:04;;;;;;;20.27;19.83;;;;;;;;;;5021189;28;20030;-42
2021/04/22 05:04:31;;;;;;;19.98;19.48;;;;;;;;;;5033121;28;20045;-41
2021/04/22 05:06:57;;;;;;;20.77;20.15;;;;;;;;;;5028883;28;20792;-41
2021/04/22 05:09:23;;;;;;;16.30;15.90;;;;;;;;;;5032142;28;20128;-43
2021/04/22 05:11:50;;;;;;;20.00;19.33;;;;;;;;;;5031118;28;20041;-42
2021/04/22 05:14:16;;;;;;;20.33;19.83;;;;;;;;;;5030368;28;20045;-43
2021/04/22 05:16:42;;;;;;;12.23;11.98;;;;;;;;;;5030669;28;20045;-42
2021/04/22 05:19:09;;;;;;;15.68;15.35;;;;;;;;;;5030613;28;20029;-42
2021/04/22 05:21:35;;;;;;;12.57;12.07;;;;;;;;;;5033073;28;20132;-42
2021/04/22 05:24:02;;;;;;;17.10;16.70;;;;;;;;;;5027838;28;20053;-42
2021/04/22 05:26:28;;;;;;;15.68;15.15;;;;;;;;;;5031803;28;20046;-42
2021/04/22 05:28:55;;;;;;;15.18;14.68;;;;;;;;;;5027233;28;20042;-42
2021/04/22 05:31:22;;;;;;;14.70;14.35;;;;;;;;;;5031558;28;20750;-41
2021/04/22 05:33:48;;;;;;;19.92;19.35;;;;;;;;;;5032532;28;20053;-43
2021/04/22 05:36:15;;;;;;;15.93;15.73;;;;;;;;;;5030853;28;20494;-44
2021/04/22 05:38:41;;;;;;;20.73;20.23;;;;;;;;;;5028970;28;20048;-44
2021/04/22 05:41:09;;;;;;;30.13;28.20;;;;;;;;;;5028832;28;20033;-44
2021/04/22 05:43:35;;;;;;;21.52;20.88;;;;;;;;;;5015172;28;20398;-43
2021/04/22 05:46:02;;;;;;;22.02;21.38;;;;;;;;;;5033118;28;20493;-43
2021/04/22 05:48:28;;;;;;;19.40;19.00;;;;;;;;;;5040203;28;20044;-41
2021/04/22 05:50:55;;;;;;;19.25;18.75;;;;;;;;;;5033845;28;20033;-43
2021/04/22 05:53:21;;;;;;;20.98;20.38;;;;;;;;;;5030968;28;20095;-43
2021/04/22 05:55:48;;;;;;;30.35;28.25;;;;;;;;;;5014439;28;20050;-42
2021/04/22 05:58:14;;;;;;;31.40;28.80;;;;;;;;;;5030974;28;20536;-42
2021/04/22 06:00:41;;;;;;;23.73;22.73;;;;;;;;;;5030753;28;20033;-42
2021/04/22 06:03:07;;;;;;;24.33;22.98;;;;;;;;;;5032365;28;20490;-42
2021/04/22 06:05:34;;;;;;;21.55;20.38;;;;;;;;;;5028985;28;20378;-45
2021/04/22 06:08:00;;;;;;;21.63;20.60;;;;;;;;;;5030837;28;20069;-42
2021/04/22 06:10:26;;;;;;;20.85;20.15;;;;;;;;;;5028367;28;20048;-42
2021/04/22 06:12:53;;;;;;;26.25;24.42;;;;;;;;;;5030585;28;20033;-42
2021/04/22 06:15:20;;;;;;;21.33;20.52;;;;;;;;;;5029483;28;20041;-42
2021/04/22 06:17:47;;;;;;;25.23;23.83;;;;;;;;;;5025641;28;20049;-42
2021/04/22 06:20:14;;;;;;;22.05;21.13;;;;;;;;;;5024939;28;20180;-41
2021/04/22 06:22:41;;;;;;;28.67;25.92;;;;;;;;;;5028544;28;20512;-43
2021/04/22 06:25:07;;;;;;;27.20;25.45;;;;;;;;;;5030398;28;20033;-42
2021/04/22 06:27:33;;;;;;;20.67;19.83;;;;;;;;;;5023859;28;20040;-41
2021/04/22 06:30:00;;;;;;;18.60;18.20;;;;;;;;;;5018724;28;20087;-42
2021/04/22 06:32:26;;;;;;;17.42;16.75;;;;;;;;;;5031372;28;20046;-42
2021/04/22 06:34:53;;;;;;;18.58;18.10;;;;;;;;;;5027066;28;20037;-43
2021/04/22 06:37:19;;;;;;;20.58;20.08;;;;;;;;;;5020795;28;20037;-41
2021/04/22 06:39:45;;;;;;;19.20;18.70;;;;;;;;;;5029834;28;20080;-41
2021/04/22 06:42:12;;;;;;;20.08;19.52;;;;;;;;;;5017619;28;20040;-41
2021/04/22 06:44:38;;;;;;;18.60;18.10;;;;;;;;;;5020096;28;20100;-42
2021/04/22 06:47:04;;;;;;;19.83;19.35;;;;;;;;;;5022834;28;20048;-43
2021/04/22 06:49:31;;;;;;;20.27;19.65;;;;;;;;;;5024607;28;20133;-42
2021/04/22 06:51:57;;;;;;;26.90;25.55;;;;;;;;;;5027924;28;20045;-41
2021/04/22 06:54:25;;;;;;;25.58;24.40;;;;;;;;;;5031188;28;20053;-42
2021/04/22 06:56:51;;;;;;;26.33;25.00;;;;;;;;;;5030896;28;20041;-43
2021/04/22 06:59:17;;;;;;;22.80;21.75;;;;;;;;;;5029763;28;20040;-43
2021/04/22 07:01:49;;;;;;;23.17;22.25;;;;;;;;;;5030756;28;20478;-46
2021/04/22 07:04:16;;;;;;;28.55;27.17;;;;;;;;;;5025463;28;20041;-43
2021/04/22 07:06:42;;;;;;;25.38;23.95;;;;;;;;;;5029815;28;20053;-42
2021/04/22 07:09:09;;;;;;;22.23;21.40;;;;;;;;;;5029657;28;20035;-43
2021/04/22 07:11:35;;;;;;;21.88;21.08;;;;;;;;;;5028238;28;20057;-41
2021/04/22 07:14:02;;;;;;;22.30;21.30;;;;;;;;;;5030910;28;20041;-41
2021/04/22 07:16:28;;;;;;;22.38;21.52;;;;;;;;;;5023681;28;20095;-43
2021/04/22 07:18:54;;;;;;;24.83;24.05;;;;;;;;;;5013344;28;20379;-43
2021/04/22 07:21:21;;;;;;;21.95;21.27;;;;;;;;;;5028217;28;20806;-41
2021/04/22 07:23:47;;;;;;;23.80;23.00;;;;;;;;;;5029396;28;20041;-42
2021/04/22 07:26:14;;;;;;;21.08;20.35;;;;;;;;;;5029422;28;20045;-41
2021/04/22 07:28:40;;;;;;;22.05;21.45;;;;;;;;;;5027358;28;20040;-41
2021/04/22 07:31:15;;;;;;;16.25;15.95;;;;;;;;;;5019997;28;20046;-41
2021/04/22 07:33:46;;;;;;;20.15;19.33;;;;;;;;;;5026691;28;20026;-42
2021/04/22 07:36:13;;;;;;;21.38;20.77;;;;;;;;;;5028033;28;20034;-43
2021/04/22 07:38:39;;;;;;;22.38;21.60;;;;;;;;;;5029134;28;20056;-42
2021/04/22 07:41:07;;;;;;;18.20;17.52;;;;;;;;;;5026639;28;20038;-41
2021/04/22 07:43:35;;;;;;;20.65;19.95;;;;;;;;;;5029501;28;20034;-41
2021/04/22 07:46:01;;;;;;;18.48;17.67;;;;;;;;;;5028145;28;20042;-44
2021/04/22 07:48:28;;;;;;;25.20;23.95;;;;;;;;;;5025342;28;20049;-43
2021/04/22 07:50:55;;;;;;;19.83;19.00;;;;;;;;;;5028792;28;20136;-42
2021/04/22 07:53:21;;;;;;;18.35;17.65;;;;;;;;;;5027654;28;20036;-40
2021/04/22 07:55:47;;;;;;;17.02;16.52;;;;;;;;;;5029050;28;20512;-41
2021/04/22 07:58:14;;;;;;;10.30;9.90;;;;;;;;;;5024397;28;20698;-44
2021/04/22 08:00:41;;;;;;;8.88;8.63;;;;;;;;;;5010992;28;20042;-41
2021/04/22 08:03:08;;;;;;;28.20;23.02;;;;;;;;;;5028962;28;20049;-41
2021/04/22 08:05:37;;;;;;;17.02;16.27;;;;;;;;;;5028624;28;20781;-43
2021/04/22 08:08:05;;;;;;;16.52;15.60;;;;;;;;;;5028803;28;20601;-42
2021/04/22 08:10:32;;;;;;;9.38;9.07;;;;;;;;;;5025018;28;20053;-44
2021/04/22 08:13:02;;;;;;;10.13;9.60;;;;;;;;;;5028497;28;20061;-41
2021/04/22 08:15:29;;;;;;;8.38;8.18;;;;;;;;;;5026550;28;20045;-42
2021/04/22 08:17:55;;;;;;;9.93;9.43;;;;;;;;;;5028580;28;20049;-42
2021/04/22 08:20:25;;;;;;;14.43;13.45;;;;;;;;;;5028593;28;20038;-40
2021/04/22 08:22:54;;;;;;;11.05;10.65;;;;;;;;;;5026725;28;20041;-42
2021/04/22 08:25:23;;;;;;;7.25;7.13;;;;;;;;;;5021771;28;20044;-44
2021/04/22 08:27:51;;;;;;;5.90;5.70;;;;;;;;;;5024094;28;20068;-42
2021/04/22 08:30:22;;;;;;;6.35;5.90;;;;;;;;;;5013017;28;20069;-42
2021/04/22 08:32:48;;;;;;;6.95;6.65;;;;;;;;;;5028082;28;20504;-41
2021/04/22 08:35:15;;;;;;;5.75;5.60;;;;;;;;;;5026353;28;20042;-42
2021/04/22 08:37:41;;;;;;;5.63;5.43;;;;;;;;;;5024511;28;20125;-42
2021/04/22 08:40:09;;;;;;;5.82;5.57;;;;;;;;;;5024227;28;20608;-41
2021/04/22 08:42:35;;;;;;;8.88;8.48;;;;;;;;;;5017263;28;20042;-42
2021/04/22 08:45:03;;;;;;;5.97;5.78;;;;;;;;;;5024597;28;20057;-41
2021/04/22 08:47:29;;;;;;;4.63;4.53;;;;;;;;;;5022258;28;20120;-41
2021/04/22 08:49:56;;;;;;;6.72;6.53;;;;;;;;;;5029563;28;20700;-44
2021/04/22 08:52:32;;;;;;;6.82;6.63;;;;;;;;;;5027509;28;20042;-43
2021/04/22 08:54:58;;;;;;;5.07;4.97;;;;;;;;;;5017224;28;20120;-42
2021/04/22 08:57:25;;;;;;;5.10;4.95;;;;;;;;;;5022930;28;20046;-42
2021/04/22 08:59:54;;;;;;;6.22;5.90;;;;;;;;;;5018189;28;20124;-41
2021/04/22 09:02:21;;;;;;;5.40;5.28;;;;;;;;;;5027145;28;20080;-41
2021/04/22 09:04:47;;;;;;;6.80;6.60;;;;;;;;;;5026664;28;20409;-41
2021/04/22 09:07:14;;;;;;;6.07;5.88;;;;;;;;;;5028306;28;20051;-41
2021/04/22 09:09:40;;;;;;;4.50;4.40;;;;;;;;;;5023178;28;20041;-41
2021/04/22 09:12:17;;;;;;;3.17;3.13;;;;;;;;;;5013847;28;20041;-41
2021/04/22 09:14:52;;;;;;;4.75;4.10;;;;;;;;;;5032438;28;20347;-42
2021/04/22 09:17:19;;;;;;;3.78;3.60;;;;;;;;;;5031995;28;20049;-43
2021/04/22 09:19:46;;;;;;;4.35;4.05;;;;;;;;;;5031518;28;20091;-43
2021/04/22 09:22:12;;;;;;;3.08;2.97;;;;;;;;;;5032744;28;20125;-42
2021/04/22 09:24:39;;;;;;;6.82;3.95;;;;;;;;;;5031910;28;20045;-42
2021/04/22 09:27:11;;;;;;;4.13;4.03;;;;;;;;;;5032823;28;20045;-41
2021/04/22 09:29:39;;;;;;;3.13;3.03;;;;;;;;;;5030607;28;20037;-42
2021/04/22 09:32:12;;;;;;;4.57;4.38;;;;;;;;;;5027463;28;20386;-46
2021/04/22 09:34:41;;;;;;;3.22;3.10;;;;;;;;;;5031353;28;20041;-42
2021/04/22 09:37:07;;;;;;;3.70;3.60;;;;;;;;;;5019545;28;20044;-44
2021/04/22 09:39:34;;;;;;;2.90;2.70;;;;;;;;;;5031756;28;20087;-42
2021/04/22 09:42:05;;;;;;;4.03;3.92;;;;;;;;;;5028346;28;20478;-41
2021/04/22 09:44:31;;;;;;;3.55;3.45;;;;;;;;;;5031864;28;20045;-41
2021/04/22 09:47:15;;;;;;;3.00;2.90;;;;;;;;;;5029705;28;20572;-41
2021/04/22 09:49:56;;;;;;;5.30;3.15;;;;;;;;;;5019238;28;20073;-42
2021/04/22 09:52:22;;;;;;;3.50;3.40;;;;;;;;;;5031463;28;20103;-43
2021/04/22 09:54:50;;;;;;;4.22;4.05;;;;;;;;;;5028601;28;20729;-42
2021/04/22 09:57:23;;;;;;;3.08;2.97;;;;;;;;;;5031945;28;20052;-45
2021/04/22 09:59:50;;;;;;;3.08;2.97;;;;;;;;;;5029057;28;20037;-43
2021/04/22 10:02:16;;;;;;;4.28;4.07;;;;;;;;;;5026061;28;20087;-42
2021/04/22 10:04:44;;;;;;;2.45;2.35;;;;;;;;;;5027615;28;20054;-42
2021/04/22 10:07:23;;;;;;;3.15;2.95;;;;;;;;;;5029091;28;20048;-42
2021/04/22 10:09:53;;;;;;;2.38;2.28;;;;;;;;;;5030576;28;20080;-43
2021/04/22 10:12:27;;;;;;;3.40;3.30;;;;;;;;;;5030301;28;20559;-42
2021/04/22 10:14:54;;;;;;;2.80;2.80;;;;;;;;;;5029727;28;20552;-42
2021/04/22 10:17:24;;;;;;;2.25;2.25;;;;;;;;;;5026180;28;20037;-43
2021/04/22 10:20:04;;;;;;;2.20;2.10;;;;;;;;;;5029776;28;20030;-42
2021/04/22 10:22:33;;;;;;;2.30;2.20;;;;;;;;;;5030523;28;20036;-42
2021/04/22 10:25:01;;;;;;;2.47;2.28;;;;;;;;;;5030791;28;20053;-43
2021/04/22 10:27:28;;;;;;;2.78;2.78;;;;;;;;;;5029846;28;20044;-42
2021/04/22 10:29:55;;;;;;;2.30;2.20;;;;;;;;;;5030533;28;20100;-41
2021/04/22 10:32:22;;;;;;;2.47;2.47;;;;;;;;;;5028554;28;20049;-41
2021/04/22 10:34:50;;;;;;;2.10;2.10;;;;;;;;;;5024385;28;20578;-41
2021/04/22 10:37:23;;;;;;;2.15;2.15;;;;;;;;;;5029553;28;20087;-46
2021/04/22 10:39:50;;;;;;;;;;;;;;;;;;5029448;28;20054;-43
2021/04/22 10:42:17;;;;;;;3.30;2.00;;;;;;;;;;5026073;28;19928;-42
2021/04/22 10:44:48;;;;;;;1.90;1.90;;;;;;;;;;5021942;28;20048;-42
2021/04/22 10:47:21;;;;;;;1.70;1.58;;;;;;;;;;5035542;28;20033;-41
2021/04/22 10:49:48;;;;;;;;;;;;;;;;;;5029507;28;20445;-43
2021/04/22 10:52:14;;;;;;;1.52;1.52;;;;;;;;;;5024377;28;19963;-41
2021/04/22 10:54:42;;;;;;;1.48;1.38;;;;;;;;;;5028740;28;20485;-41
2021/04/22 10:57:10;;;;;;;2.72;1.90;;;;;;;;;;5025761;28;20042;-43
2021/04/22 10:59:36;;;;;;;2.20;2.15;;;;;;;;;;5032724;28;20057;-42
2021/04/22 11:02:21;;;;;;;1.60;1.60;;;;;;;;;;5029083;28;20113;-42
2021/04/22 11:04:48;;;;;;;1.40;1.40;;;;;;;;;;5027941;28;20046;-41
2021/04/22 11:07:19;;;;;;;1.30;1.30;;;;;;;;;;5029175;28;20033;-43
2021/04/22 11:09:45;;;;;;;1.45;1.45;;;;;;;;;;5020359;28;20045;-42
2021/04/22 11:12:11;;;;;;;2.25;1.40;;;;;;;;;;5030284;28;20060;-43
2021/04/22 11:14:52;;;;;;;1.80;1.73;;;;;;;;;;5026501;28;20041;-44
2021/04/22 11:17:38;;;;;;;1.40;1.40;;;;;;;;;;5020480;28;20033;-44
2021/04/22 11:20:14;;;;;;;1.33;1.33;;;;;;;;;;5026666;28;20037;-42
2021/04/22 11:22:44;;;;;;;1.20;1.20;;;;;;;;;;5022480;28;20132;-44
2021/04/22 11:25:16;;;;;;;1.75;1.27;;;;;;;;;;5037486;28;20068;-43
2021/04/22 11:27:52;;;;;;;1.80;1.70;;;;;;;;;;5025811;28;20128;-42
2021/04/22 11:30:26;;;;;;;1.58;1.48;;;;;;;;;;5018442;28;20666;-44
2021/04/22 11:32:53;;;;;;;1.60;1.60;;;;;;;;;;5017968;28;20136;-42
2021/04/22 11:35:21;;;;;;;1.33;1.33;;;;;;;;;;5027934;28;20118;-43
2021/04/22 11:37:49;;;;;;;4.55;1.65;;;;;;;;;;5012742;28;20096;-42
2021/04/22 11:40:19;;;;;;;1.60;1.60;;;;;;;;;;5029691;28;20095;-44
2021/04/22 11:42:47;;;;;;;1.30;1.30;;;;;;;;;;5027634;28;20026;-45
2021/04/22 11:45:15;;;;;;;1.50;1.40;;;;;;;;;;5026156;28;20056;-45
2021/04/22 11:47:53;;;;;;;1.80;1.70;;;;;;;;;;5028327;28;20042;-42
2021/04/22 11:50:20;;;;;;;2.10;1.98;;;;;;;;;;5028741;28;20037;-41
2021/04/22 11:52:50;;;;;;;1.63;1.63;;;;;;;;;;5027840;28;20103;-42
2021/04/22 11:55:18;;;;;;;1.65;1.65;;;;;;;;;;5027044;28;20060;-41
2021/04/22 11:58:06;;;;;;;1.70;1.70;;;;;;;;;;5029636;28;20037;-42
2021/04/22 12:00:39;;;;;;;1.52;1.52;;;;;;;;;;5026989;28;20065;-44
2021/04/22 12:03:07;;;;;;;1.83;1.73;;;;;;;;;;5021217;28;20038;-42
2021/04/22 12:05:35;;;;;;;1.70;1.60;;;;;;;;;;5019563;28;20044;-44
2021/04/22 12:08:01;;;;;;;1.63;1.50;;;;;;;;;;5019423;28;20041;-44
2021/04/22 12:10:29;;;;;;;1.45;1.45;;;;;;;;;;5030437;28;20103;-44
2021/04/22 12:13:02;;;;;;;1.42;1.42;;;;;;;;;;5025155;28;20148;-45
2021/04/22 12:15:29;;;;;;;;;;;;;;;;;;5030810;28;20049;-42
2021/04/22 12:17:56;;;;;;;2.95;2.90;;;;;;;;;;5028168;28;19948;-42
2021/04/22 12:20:22;;;;;;;1.75;1.75;;;;;;;;;;5026628;28;20033;-44
2021/04/22 12:22:48;;;;;;;2.30;2.20;;;;;;;;;;5029930;28;20466;-44
2021/04/22 12:25:17;;;;;;;2.20;2.00;;;;;;;;;;5027659;28;20037;-44
2021/04/22 12:27:46;;;;;;;4.82;2.90;;;;;;;;;;5041052;28;20049;-41
2021/04/22 12:30:16;;;;;;;2.08;2.08;;;;;;;;;;5026482;28;20053;-42
2021/04/22 12:33:01;;;;;;;2.00;2.00;;;;;;;;;;5017483;28;20134;-42
2021/04/22 12:35:29;;;;;;;3.40;1.92;;;;;;;;;;5028471;28;20029;-44
2021/04/22 12:37:56;;;;;;;1.98;1.88;;;;;;;;;;5023920;28;20104;-44
2021/04/22 12:40:23;;;;;;;2.35;2.15;;;;;;;;;;5028719;28;20371;-43
2021/04/22 12:42:50;;;;;;;2.22;2.22;;;;;;;;;;5024558;28;20525;-42
2021/04/22 12:45:18;;;;;;;31.50;23.50;;;;;;;;;;5020195;28;20041;-41
2021/04/22 12:47:46;;;;;;;4.88;2.35;;;;;;;;;;5028312;28;20504;-41
2021/04/22 12:50:13;;;;;;;2.45;1.95;;;;;;;;;;5028303;28;20041;-42
2021/04/22 12:52:39;;;;;;;2.28;2.17;;;;;;;;;;5029967;28;20053;-42
2021/04/22 12:55:09;;;;;;;2.42;1.77;;;;;;;;;;5031003;28;20038;-43
2021/04/22 12:57:35;;;;;;;1.70;1.60;;;;;;;;;;5033814;28;20037;-43
2021/04/22 13:00:04;;;;;;;3.13;1.52;;;;;;;;;;5029234;28;20400;-42
2021/04/22 13:02:34;;;;;;;1.13;1.10;;;;;;;;;;5031042;28;20030;-42
2021/04/22 13:05:20;;;;;;;1.67;1.58;;;;;;;;;;5032562;28;20042;-42
2021/04/22 13:07:46;;;;;;;1.20;1.20;;;;;;;;;;5028703;28;20052;-42
2021/04/22 13:10:17;;;;;;;2.40;2.13;;;;;;;;;;5017376;28;20144;-42
2021/04/22 13:12:50;;;;;;;1.85;1.83;;;;;;;;;;5024252;28;20046;-41
2021/04/22 13:15:17;;;;;;;1.90;1.90;;;;;;;;;;5021324;28;20538;-43
2021/04/22 13:17:44;;;;;;;2.25;2.22;;;;;;;;;;5032654;28;20033;-42
2021/04/22 13:20:23;;;;;;;3.10;1.73;;;;;;;;;;5028480;28;20037;-43
2021/04/22 13:22:51;;;;;;;2.22;2.13;;;;;;;;;;5031926;28;20033;-42
2021/04/22 13:25:19;;;;;;;3.70;2.42;;;;;;;;;;5031495;28;20045;-44
2021/04/22 13:27:46;;;;;;;1.92;1.83;;;;;;;;;;5030490;28;20037;-41
2021/04/22 13:30:13;;;;;;;2.30;2.20;;;;;;;;;;5033365;28;20525;-46
2021/04/22 13:32:39;;;;;;;2.20;2.10;;;;;;;;;;5029043;28;20615;-42
2021/04/22 13:35:07;;;;;;;2.88;2.75;;;;;;;;;;5029844;28;20967;-44
2021/04/22 13:37:36;;;;;;;4.15;4.05;;;;;;;;;;5026306;28;20115;-43
2021/04/22 13:40:13;;;;;;;4.35;3.88;;;;;;;;;;5019291;28;20121;-43
2021/04/22 13:42:42;;;;;;;1.70;1.70;;;;;;;;;;5018112;28;20060;-42
2021/04/22 13:45:13;;;;;;;2.38;2.20;;;;;;;;;;5026283;28;20455;-43
2021/04/22 13:47:39;;;;;;;1.98;1.88;;;;;;;;;;5018747;28;20042;-42
2021/04/22 13:50:06;;;;;;;2.28;2.17;;;;;;;;;;5029015;28;20077;-42
2021/04/22 13:52:33;;;;;;;4.72;1.92;;;;;;;;;;5018807;28;20045;-43
2021/04/22 13:55:00;;;;;;;2.70;2.40;;;;;;;;;;5018921;28;20164;-41
2021/04/22 13:57:28;;;;;;;2.25;2.15;;;;;;;;;;5024578;28;20130;-44
2021/04/22 14:00:00;;;;;;;4.75;2.80;;;;;;;;;;5024653;28;20030;-42
2021/04/22 14:02:37;;;;;;;4.50;3.45;;;;;;;;;;5030428;28;20036;-41
2021/04/22 14:05:06;;;;;;;3.75;3.45;;;;;;;;;;5020556;28;20038;-41
2021/04/22 14:07:33;;;;;;;3.63;3.35;;;;;;;;;;5018672;28;20037;-43
2021/04/22 14:09:59;;;;;;;3.00;2.75;;;;;;;;;;5024425;28;20665;-41
2021/04/22 14:12:32;;;;;;;2.00;1.90;;;;;;;;;;5010831;28;20037;-42
2021/04/22 14:15:16;;;;;;;2.15;2.10;;;;;;;;;;5030404;28;20458;-42
2021/04/22 14:17:42;;;;;;;1.40;1.40;;;;;;;;;;5023284;28;20120;-44
2021/04/22 14:20:08;;;;;;;1.48;1.40;;;;;;;;;;5031162;28;20041;-42
2021/04/22 14:22:35;;;;;;;1.67;1.58;;;;;;;;;;5028530;28;20041;-43
2021/04/22 14:25:02;;;;;;;3.88;1.23;;;;;;;;;;5031119;28;20041;-43
2021/04/22 14:27:28;;;;;;;1.85;1.55;;;;;;;;;;5027502;28;20042;-42
2021/04/22 14:29:54;;;;;;;1.20;1.20;;;;;;;;;;5025776;28;20049;-44
2021/04/22 14:32:20;;;;;;;1.60;1.50;;;;;;;;;;5023599;28;20458;-43
2021/04/22 14:34:47;;;;;;;1.65;1.52;;;;;;;;;;5023634;28;20037;-41